Portada
METAR-TAF:

METAR-TAF

Aeropuertos :

Bolzano, Italia

latitud: 46-28N, longitud: 011-20E, altitud: 262 m

Observación

El informe se hizo hace 5 horas y 8 minutos, a las 21:50 UTC
Viento 8 kt del noreste, variando entre norte y este
Temperatura 7°C
Humedad 17%
Presión 1006 hPa
Visibilidad 10 km o más
sin nubes por debajo de 1500 m y sin presencia de cumulonimbus.

METAR: LIPB 262150Z 04008KT 350V080 CAVOK 07/M16 Q1006 RMK MON INVIS

Hora: 03:58 (02:58 UTC)

Pronóstico

El informe se hizo hace 9 horas y 58 minutos, a las 17:00 UTC
Pronóstico válido del 26 a las 18 UTC al 27 a las 18 UTC
Viento 12 kt del norte
Visibilidad 10 km o más
Cielo nuboso a una altura de 4000 ft
Evolucionando progresivamente
del 27 a las 08 UTC al 27 a las 11 UTC
Viento 10 kt del sur
Evolucionando progresivamente
del 27 a las 16 UTC al 27 a las 18 UTC
Viento 5 kt con dirección variable

TAF: LIPB 261700Z 2618/2718 35012KT 9999 BKN040 BECMG 2708/2711 19010KT BECMG 2716/2718 VRB05KT

Observaciones y pronósticos meteorológicos de más de 4000 aeropuertos (mensajes METAR y TAF).

Los puntos amarillos y rojos representan las estaciones disponibles.

Ponga el ratón en el punto deseado para ver el nombre de la estación.

Haga clic para ver las observaciones y los pronósticos meteorológicos.

Para cambiar el mapa : haga clic en los botones verdes con una cruz de color negro para hacer un zoom, en el botón verde con un guión para alejar o en las flechas verdes para mapas adyacentes.


METAR-TAF: